Time;durP1;ratioP1;P1;durP2;ratioP2;P2;SDS_P1;SDS_P2;PMS_P1;PMS_P2;Temp;Humidity;BMP_temperature;BMP_pressure;BME280_temperature;BME280_humidity;BME280_pressure;Samples;Min_cycle;Max_cycle;Signal;HPM_P1;HPM_P2
2021/08/18 00:01:19;;;;;;;1999.90;999.90;;;15.90;99.90;;;;;;5057980;28;20239;-79
2021/08/18 00:03:44;;;;;;;1999.90;999.90;;;15.90;99.90;;;;;;5056478;28;20162;-78
2021/08/18 00:06:11;;;;;;;1999.90;999.90;;;15.90;99.90;;;;;;5056929;28;20628;-78
2021/08/18 00:08:37;;;;;;;1999.90;999.90;;;15.80;99.90;;;;;;5057219;28;20251;-78
2021/08/18 00:11:03;;;;;;;1999.90;999.90;;;15.80;99.90;;;;;;5039127;28;20423;-78
2021/08/18 00:13:29;;;;;;;1999.90;999.90;;;15.80;99.90;;;;;;5039193;28;20545;-78
2021/08/18 00:15:56;;;;;;;1999.90;999.90;;;15.80;99.90;;;;;;5056690;28;20400;-78
2021/08/18 00:18:22;;;;;;;1999.90;999.90;;;15.80;99.90;;;;;;5039212;28;20190;-80
2021/08/18 00:20:48;;;;;;;1999.90;999.90;;;15.90;99.90;;;;;;5055869;28;20399;-78
2021/08/18 00:23:14;;;;;;;1999.90;999.90;;;15.90;99.90;;;;;;5056862;28;20448;-78
2021/08/18 00:25:40;;;;;;;1999.90;999.90;;;15.90;99.90;;;;;;5056751;28;20165;-78
2021/08/18 00:28:05;;;;;;;1999.90;999.90;;;15.80;99.90;;;;;;5039104;28;20727;-79
2021/08/18 00:30:31;;;;;;;1999.90;999.90;;;15.80;99.90;;;;;;5039286;28;20193;-78
2021/08/18 00:32:57;;;;;;;1999.90;999.90;;;15.80;99.90;;;;;;5057132;28;20775;-78
2021/08/18 00:35:23;;;;;;;1999.90;999.90;;;15.80;99.90;;;;;;5057222;28;20576;-78
2021/08/18 00:37:49;;;;;;;1999.90;999.90;;;15.80;99.90;;;;;;5058515;28;20193;-80
2021/08/18 00:40:15;;;;;;;1999.90;999.90;;;15.90;99.90;;;;;;5058906;28;20774;-80
2021/08/18 00:42:45;;;;;;;1999.90;999.90;;;15.80;99.90;;;;;;5058931;28;20192;-80
2021/08/18 00:45:12;;;;;;;1999.90;999.90;;;15.80;99.90;;;;;;5058863;28;20775;-80
2021/08/18 00:47:46;;;;;;;1999.90;999.90;;;15.70;99.90;;;;;;5058824;28;20452;-80
2021/08/18 00:50:19;;;;;;;1999.90;999.90;;;15.70;99.90;;;;;;5058620;28;20900;-80
2021/08/18 00:52:46;;;;;;;1999.90;999.90;;;15.70;99.90;;;;;;5059064;28;20415;-80
2021/08/18 00:55:17;;;;;;;1999.90;999.90;;;15.70;99.90;;;;;;5058914;28;20393;-79
2021/08/18 00:57:43;;;;;;;1999.90;999.90;;;15.70;99.90;;;;;;5059117;28;20438;-79
2021/08/18 01:00:11;;;;;;;1999.90;999.90;;;15.70;99.90;;;;;;5059063;28;20402;-79
2021/08/18 01:02:38;;;;;;;1999.90;999.90;;;15.70;99.90;;;;;;5058962;28;20448;-79
2021/08/18 01:05:27;;;;;;;1999.90;999.90;;;15.80;99.90;;;;;;5058843;28;20427;-80
2021/08/18 01:07:54;;;;;;;1999.90;999.90;;;15.70;99.90;;;;;;5059035;28;20441;-79
2021/08/18 01:10:22;;;;;;;1999.90;999.90;;;15.70;99.90;;;;;;5058419;28;20415;-79
2021/08/18 01:12:49;;;;;;;1999.90;999.90;;;15.80;99.90;;;;;;5058923;28;20410;-79
2021/08/18 01:15:17;;;;;;;1999.90;999.90;;;15.80;99.90;;;;;;5058746;28;20403;-79
2021/08/18 01:17:46;;;;;;;1999.90;999.90;;;15.80;99.90;;;;;;5057948;28;20421;-80
2021/08/18 01:20:16;;;;;;;1999.90;999.90;;;15.80;99.90;;;;;;5058817;28;20795;-79
2021/08/18 01:22:43;;;;;;;1999.90;999.90;;;15.80;99.90;;;;;;5059142;28;20387;-79
2021/08/18 01:25:10;;;;;;;1999.90;999.90;;;15.70;99.90;;;;;;5058598;28;20499;-79
2021/08/18 01:27:37;;;;;;;1999.90;999.90;;;15.80;99.90;;;;;;5056583;28;20444;-77
2021/08/18 01:30:05;;;;;;;1999.90;999.90;;;15.80;99.90;;;;;;5055476;28;20405;-77
2021/08/18 01:32:46;;;;;;;1999.90;999.90;;;15.80;99.90;;;;;;5055298;28;20435;-77
2021/08/18 01:35:17;;;;;;;1999.90;999.90;;;15.80;99.90;;;;;;5055461;28;20895;-77
2021/08/18 01:37:42;;;;;;;1999.90;999.90;;;15.80;99.90;;;;;;5055469;28;20446;-77
2021/08/18 01:40:09;;;;;;;1999.90;999.90;;;15.80;99.90;;;;;;5055639;28;20484;-77
2021/08/18 01:42:37;;;;;;;1999.90;999.90;;;15.80;99.90;;;;;;5056047;28;20162;-77
2021/08/18 01:45:04;;;;;;;1999.90;999.90;;;15.80;99.90;;;;;;5056023;28;20910;-77
2021/08/18 01:47:30;;;;;;;1999.90;999.90;;;15.80;99.90;;;;;;5055307;28;20443;-77
2021/08/18 01:49:56;;;;;;;1999.90;999.90;;;15.80;99.90;;;;;;5055352;28;20542;-77
2021/08/18 01:52:21;;;;;;;1999.90;999.90;;;15.80;99.90;;;;;;5055592;28;20167;-79
2021/08/18 01:54:47;;;;;;;1999.90;999.90;;;15.80;99.90;;;;;;5057217;28;20190;-78
2021/08/18 01:57:12;;;;;;;1999.90;999.90;;;15.80;99.90;;;;;;5039707;28;20202;-79
2021/08/18 01:59:38;;;;;;;1999.90;999.90;;;15.90;99.90;;;;;;5057647;28;20519;-79
2021/08/18 02:02:04;;;;;;;1999.90;999.90;;;15.90;99.90;;;;;;5057834;28;20173;-80
2021/08/18 02:04:30;;;;;;;1999.90;999.90;;;15.90;99.90;;;;;;5057889;28;20174;-79
2021/08/18 02:06:55;;;;;;;1999.90;999.90;;;15.90;99.90;;;;;;5057197;28;20289;-79
2021/08/18 02:09:21;;;;;;;1999.90;999.90;;;15.90;99.90;;;;;;5058156;28;20160;-80
2021/08/18 02:11:46;;;;;;;1999.90;999.90;;;15.90;99.90;;;;;;5057533;28;20218;-79
2021/08/18 02:14:12;;;;;;;1999.90;999.90;;;15.90;99.90;;;;;;5039565;28;20175;-79
2021/08/18 02:16:38;;;;;;;1999.90;999.90;;;15.90;99.90;;;;;;5057337;28;20190;-79
2021/08/18 02:19:04;;;;;;;1999.90;999.90;;;15.80;99.90;;;;;;5039666;28;20178;-79
2021/08/18 02:21:29;;;;;;;1999.90;999.90;;;15.80;99.90;;;;;;5057614;28;20424;-79
2021/08/18 02:23:55;;;;;;;1999.90;999.90;;;15.90;99.90;;;;;;5057928;28;20177;-79
2021/08/18 02:26:21;;;;;;;1999.90;999.90;;;15.80;99.90;;;;;;5057159;28;20189;-79
2021/08/18 02:28:46;;;;;;;1999.90;999.90;;;15.90;99.90;;;;;;5057505;28;20197;-79
2021/08/18 02:31:12;;;;;;;1999.90;999.90;;;15.90;99.90;;;;;;5057499;28;20187;-79
2021/08/18 02:33:38;;;;;;;1999.90;999.90;;;15.90;99.90;;;;;;5057267;28;20168;-79
2021/08/18 02:36:04;;;;;;;1999.90;999.90;;;15.90;99.90;;;;;;5039344;28;20255;-79
2021/08/18 02:38:29;;;;;;;1999.90;999.90;;;15.90;99.90;;;;;;5057066;28;20207;-79
2021/08/18 02:40:55;;;;;;;1999.90;999.90;;;16.00;99.90;;;;;;5038643;28;20500;-79
2021/08/18 02:43:21;;;;;;;1999.90;999.90;;;16.00;99.90;;;;;;5057097;28;20171;-80
2021/08/18 02:45:46;;;;;;;1999.90;999.90;;;16.00;99.90;;;;;;5057724;28;20189;-79
2021/08/18 02:48:12;;;;;;;1999.90;999.90;;;15.90;99.90;;;;;;5056487;28;20218;-79
2021/08/18 02:50:38;;;;;;;1999.90;999.90;;;15.90;99.90;;;;;;5038978;28;20169;-79
2021/08/18 02:53:04;;;;;;;1999.90;999.90;;;15.90;99.90;;;;;;5056741;28;20183;-79
2021/08/18 02:55:29;;;;;;;1999.90;999.90;;;16.00;99.90;;;;;;5057232;28;20543;-79
2021/08/18 02:57:56;;;;;;;1999.90;999.90;;;16.00;99.90;;;;;;5039080;28;20666;-79
2021/08/18 03:00:22;;;;;;;1999.90;999.90;;;16.00;99.90;;;;;;5040019;28;20296;-79
2021/08/18 03:02:48;;;;;;;1999.90;999.90;;;16.00;99.90;;;;;;5038915;28;20436;-79
2021/08/18 03:05:14;;;;;;;1999.90;999.90;;;16.00;99.90;;;;;;5039125;28;20163;-79
2021/08/18 03:07:40;;;;;;;1999.90;999.90;;;16.00;99.90;;;;;;5057173;28;20589;-79
2021/08/18 03:10:07;;;;;;;1999.90;999.90;;;16.00;99.90;;;;;;5039191;28;20417;-79
2021/08/18 03:12:33;;;;;;;1999.90;999.90;;;16.10;99.90;;;;;;5056566;28;20405;-79
2021/08/18 03:14:59;;;;;;;1999.90;999.90;;;16.10;99.90;;;;;;5056863;28;20446;-79
2021/08/18 03:17:27;;;;;;;1999.90;999.90;;;16.10;99.90;;;;;;5056873;28;20951;-79
2021/08/18 03:19:53;;;;;;;1999.90;999.90;;;16.00;99.90;;;;;;5057031;28;20171;-79
2021/08/18 03:22:18;;;;;;;1999.90;999.90;;;16.00;99.90;;;;;;5056659;28;20473;-79
2021/08/18 03:24:44;;;;;;;1999.90;999.90;;;16.00;99.90;;;;;;5056750;28;20534;-79
2021/08/18 03:27:10;;;;;;;1999.90;999.90;;;16.00;99.90;;;;;;5056510;28;20200;-79
2021/08/18 03:29:35;;;;;;;1999.90;999.90;;;16.00;99.90;;;;;;5056676;28;20572;-79
2021/08/18 03:32:01;;;;;;;1999.90;999.90;;;16.00;99.90;;;;;;5056606;28;20246;-79
2021/08/18 03:34:27;;;;;;;1999.90;999.90;;;16.00;99.90;;;;;;5038463;28;20175;-79
2021/08/18 03:36:52;;;;;;;1999.90;999.90;;;16.00;99.90;;;;;;5056383;28;20502;-79
2021/08/18 03:39:18;;;;;;;1999.90;999.90;;;16.00;99.90;;;;;;5056732;28;20196;-80
2021/08/18 03:41:44;;;;;;;1999.90;999.90;;;16.10;99.90;;;;;;5055958;28;20169;-79
2021/08/18 03:44:09;;;;;;;1999.90;999.90;;;16.00;99.90;;;;;;5056569;28;20164;-79
2021/08/18 03:46:35;;;;;;;1999.90;999.90;;;16.00;99.90;;;;;;5056565;28;20177;-79
2021/08/18 03:49:01;;;;;;;1999.90;999.90;;;16.00;99.90;;;;;;5056396;28;20195;-79
2021/08/18 03:51:26;;;;;;;1999.90;999.90;;;16.00;99.90;;;;;;5056566;28;20173;-79
2021/08/18 03:53:52;;;;;;;1999.90;999.90;;;16.00;99.90;;;;;;5039431;28;20204;-79
2021/08/18 03:56:18;;;;;;;1999.90;999.90;;;15.90;99.90;;;;;;5059567;28;20168;-79
2021/08/18 03:58:44;;;;;;;1999.90;999.90;;;16.00;99.90;;;;;;5059644;28;20225;-80
2021/08/18 04:01:10;;;;;;;1999.90;999.90;;;16.00;99.90;;;;;;5059960;28;20170;-79
2021/08/18 04:03:36;;;;;;;1999.90;999.90;;;16.10;99.90;;;;;;5061036;28;20413;-79
2021/08/18 04:06:02;;;;;;;1999.90;999.90;;;16.00;99.90;;;;;;5042167;28;20781;-79
2021/08/18 04:08:28;;;;;;;1999.90;999.90;;;16.00;99.90;;;;;;5059662;28;20480;-79
2021/08/18 04:10:54;;;;;;;1999.90;999.90;;;16.00;99.90;;;;;;5059698;28;20427;-79
2021/08/18 04:13:19;;;;;;;1999.90;999.90;;;15.90;99.90;;;;;;5059060;28;20180;-79
2021/08/18 04:15:45;;;;;;;1999.90;999.90;;;15.90;99.90;;;;;;5059642;28;20162;-79
2021/08/18 04:18:11;;;;;;;1999.90;999.90;;;15.80;99.90;;;;;;5059835;28;20219;-79
2021/08/18 04:20:37;;;;;;;1999.90;999.90;;;15.80;99.90;;;;;;5041744;28;20172;-80
2021/08/18 04:23:04;;;;;;;1999.90;999.90;;;15.90;99.90;;;;;;5059366;28;20461;-79
2021/08/18 04:25:30;;;;;;;1999.90;999.90;;;15.90;99.90;;;;;;5059653;28;20401;-79
2021/08/18 04:27:56;;;;;;;1999.90;999.90;;;15.80;99.90;;;;;;5059078;28;20979;-79
2021/08/18 04:30:22;;;;;;;1999.90;999.90;;;15.80;99.90;;;;;;5059507;28;20439;-79
2021/08/18 04:32:49;;;;;;;1999.90;999.90;;;15.90;99.90;;;;;;5041660;28;20653;-79
2021/08/18 04:35:17;;;;;;;1999.90;999.90;;;16.00;99.90;;;;;;5058878;28;20813;-79
2021/08/18 04:37:43;;;;;;;1999.90;999.90;;;16.00;99.90;;;;;;5059139;28;20425;-79
2021/08/18 04:40:11;;;;;;;1999.90;999.90;;;16.00;99.90;;;;;;5059023;28;20493;-79
2021/08/18 04:42:40;;;;;;;1999.90;999.90;;;16.00;99.90;;;;;;5059206;28;20418;-79
2021/08/18 04:45:08;;;;;;;1999.90;999.90;;;16.00;99.90;;;;;;5059064;28;20467;-79
2021/08/18 04:47:34;;;;;;;1999.90;999.90;;;16.00;99.90;;;;;;5040593;28;20455;-79
2021/08/18 04:50:00;;;;;;;1999.90;999.90;;;16.10;99.90;;;;;;5059173;28;20439;-79
2021/08/18 04:52:26;;;;;;;1999.90;999.90;;;16.10;99.90;;;;;;5058903;28;20448;-79
2021/08/18 04:54:52;;;;;;;1999.90;999.90;;;16.00;99.90;;;;;;5059105;28;20413;-79
2021/08/18 04:57:18;;;;;;;1999.90;999.90;;;16.00;99.90;;;;;;5058990;28;20432;-79
2021/08/18 04:59:43;;;;;;;1999.90;999.90;;;16.00;99.90;;;;;;5058708;28;20410;-79
2021/08/18 05:02:09;;;;;;;1999.90;999.90;;;16.10;99.90;;;;;;5058980;28;20523;-79
2021/08/18 05:04:35;;;;;;;1999.90;999.90;;;16.10;99.90;;;;;;5058859;28;20158;-79
2021/08/18 05:07:00;;;;;;;1999.90;999.90;;;16.00;99.90;;;;;;5058003;28;20199;-79
2021/08/18 05:09:26;;;;;;;1999.90;999.90;;;16.10;99.90;;;;;;5058800;28;20190;-79
2021/08/18 05:11:53;;;;;;;1999.90;999.90;;;16.10;99.90;;;;;;5058434;28;20663;-79
2021/08/18 05:14:19;;;;;;;1999.90;999.90;;;16.10;99.90;;;;;;5039988;28;20173;-79
2021/08/18 05:16:45;;;;;;;1999.90;999.90;;;16.10;99.90;;;;;;5058708;28;20423;-79
2021/08/18 05:19:10;;;;;;;1999.90;999.90;;;16.10;99.90;;;;;;5058703;28;20204;-79
2021/08/18 05:21:36;;;;;;;1999.90;999.90;;;16.20;99.90;;;;;;5057985;28;20167;-79
2021/08/18 05:24:02;;;;;;;1999.90;999.90;;;16.20;99.90;;;;;;5057804;28;20173;-79
2021/08/18 05:26:28;;;;;;;1999.90;999.90;;;16.20;99.90;;;;;;5040323;28;20203;-79
2021/08/18 05:28:53;;;;;;;1999.90;999.90;;;16.20;99.90;;;;;;5057942;28;20440;-79
2021/08/18 05:31:19;;;;;;;1999.90;999.90;;;16.30;99.90;;;;;;5058939;28;20158;-78
2021/08/18 05:33:44;;;;;;;1999.90;999.90;;;16.30;99.90;;;;;;5058116;28;20243;-79
2021/08/18 05:36:10;;;;;;;1999.90;999.90;;;16.30;99.90;;;;;;5058154;28;20682;-79
2021/08/18 05:38:37;;;;;;;1999.90;999.90;;;16.30;99.90;;;;;;5057981;28;20577;-79
2021/08/18 05:41:03;;;;;;;1999.90;999.90;;;16.30;99.90;;;;;;5040461;28;20221;-79
2021/08/18 05:43:29;;;;;;;1999.90;999.90;;;16.40;99.90;;;;;;5058470;28;20410;-79
2021/08/18 05:45:55;;;;;;;1999.90;999.90;;;16.30;99.90;;;;;;5057340;28;20416;-79
2021/08/18 05:48:20;;;;;;;1999.90;999.90;;;16.30;99.90;;;;;;5039785;28;20271;-79
2021/08/18 05:50:46;;;;;;;1999.90;999.90;;;16.30;99.90;;;;;;5039854;28;20628;-79
2021/08/18 05:53:18;;;;;;;1999.90;999.90;;;16.40;99.90;;;;;;5131313;22;20222;-87
2021/08/18 05:55:45;;;;;;;1999.90;999.90;;;16.50;99.90;;;;;;5060702;28;20159;-86
2021/08/18 05:58:11;;;;;;;1999.90;999.90;;;16.60;99.90;;;;;;5060429;28;20766;-87
2021/08/18 06:00:43;;;;;;;1999.90;999.90;;;16.60;99.90;;;;;;5060795;28;20779;-87
2021/08/18 06:03:09;;;;;;;1999.90;999.90;;;16.60;99.90;;;;;;5060385;28;20789;-84
2021/08/18 06:05:38;;;;;;;1999.90;999.90;;;16.60;99.90;;;;;;5060943;28;20409;-85
2021/08/18 06:08:05;;;;;;;1999.90;999.90;;;16.60;99.90;;;;;;5061910;28;20440;-85
2021/08/18 06:10:31;;;;;;;1999.90;999.90;;;16.60;99.90;;;;;;5043485;28;20480;-85
2021/08/18 06:12:56;;;;;;;1999.90;999.90;;;16.70;99.90;;;;;;5061704;28;20812;-84
2021/08/18 06:15:22;;;;;;;1999.90;999.90;;;16.70;99.90;;;;;;5060972;28;20491;-85
2021/08/18 06:17:53;;;;;;;1999.90;999.90;;;16.70;99.90;;;;;;5059552;28;20185;-85
2021/08/18 06:20:19;;;;;;;1999.90;999.90;;;16.70;99.90;;;;;;5060789;28;20153;-85
2021/08/18 06:22:46;;;;;;;1999.90;999.90;;;16.70;99.90;;;;;;5061959;28;20395;-85
2021/08/18 06:25:12;;;;;;;1999.90;999.90;;;16.70;99.90;;;;;;5061674;28;20173;-85
2021/08/18 06:27:41;;;;;;;1999.90;999.90;;;16.70;99.90;;;;;;5061083;28;20849;-85
2021/08/18 06:30:08;;;;;;;1999.90;999.90;;;16.70;99.90;;;;;;5060668;28;20504;-85
2021/08/18 06:32:36;;;;;;;1999.90;999.90;;;16.60;99.90;;;;;;5060647;28;20402;-84
2021/08/18 06:35:03;;;;;;;1999.90;999.90;;;16.70;99.90;;;;;;5060006;28;20413;-84
2021/08/18 06:37:47;;;;;;;1999.90;999.90;;;16.70;99.90;;;;;;5060941;28;20423;-85
2021/08/18 06:40:13;;;;;;;1999.90;999.90;;;16.80;99.90;;;;;;5043684;28;20441;-85
2021/08/18 06:42:44;;;;;;;1999.90;999.90;;;16.80;99.90;;;;;;5043929;28;20418;-84
2021/08/18 06:45:11;;;;;;;1999.90;999.90;;;16.80;99.90;;;;;;5043382;28;20251;-84
2021/08/18 06:47:38;;;;;;;1999.90;999.90;;;16.80;99.90;;;;;;5061357;28;20450;-85
2021/08/18 06:50:09;;;;;;;1999.90;999.90;;;16.90;99.90;;;;;;5061153;28;20494;-85
2021/08/18 06:52:34;;;;;;;1999.90;999.90;;;16.90;99.90;;;;;;5061277;28;20393;-85
2021/08/18 06:55:00;;;;;;;1999.90;999.90;;;17.00;99.90;;;;;;5042627;28;20516;-85
2021/08/18 06:57:26;;;;;;;1999.90;999.90;;;17.10;99.90;;;;;;5043415;28;20254;-85
2021/08/18 06:59:51;;;;;;;1999.90;999.90;;;17.10;99.90;;;;;;5044257;28;20171;-85
2021/08/18 07:02:17;;;;;;;1999.90;999.90;;;17.00;99.90;;;;;;5044928;28;20204;-85
2021/08/18 07:04:43;;;;;;;1999.90;999.90;;;17.20;99.90;;;;;;5061982;28;20175;-85
2021/08/18 07:07:09;;;;;;;1999.90;999.90;;;17.20;99.90;;;;;;5061796;28;20202;-85
2021/08/18 07:09:34;;;;;;;1999.90;999.90;;;17.20;99.90;;;;;;5060589;28;20191;-85
2021/08/18 07:12:00;;;;;;;1999.90;999.90;;;17.30;99.90;;;;;;5060644;28;20160;-85
2021/08/18 07:14:26;;;;;;;1999.90;999.90;;;17.30;99.90;;;;;;5061360;28;20145;-85
2021/08/18 07:16:51;;;;;;;1999.90;999.90;;;17.40;99.90;;;;;;5060745;28;20654;-85
2021/08/18 07:19:17;;;;;;;1999.90;999.90;;;17.40;99.90;;;;;;5060400;28;20704;-85
2021/08/18 07:21:43;;;;;;;1999.90;999.90;;;17.40;99.90;;;;;;5043133;28;20186;-85
2021/08/18 07:24:08;;;;;;;1999.90;999.90;;;17.40;99.90;;;;;;5042592;28;20259;-85
2021/08/18 07:26:34;;;;;;;1999.90;999.90;;;17.40;99.90;;;;;;5042407;28;20644;-85
2021/08/18 07:29:00;;;;;;;1999.90;999.90;;;17.40;99.90;;;;;;5061920;28;20442;-85
2021/08/18 07:31:26;;;;;;;1999.90;999.90;;;17.40;99.90;;;;;;5030602;28;20167;-85
2021/08/18 07:33:56;;;;;;;1999.90;999.90;;;17.60;99.90;;;;;;5064562;28;20167;-85
2021/08/18 07:36:22;;;;;;;1999.90;999.90;;;17.60;99.90;;;;;;5047819;28;20433;-85
2021/08/18 07:38:47;;;;;;;1999.90;999.90;;;17.70;99.90;;;;;;5067091;28;20410;-85
2021/08/18 07:41:16;;;;;;;1999.90;999.90;;;17.90;99.90;;;;;;5049768;28;20438;-85
2021/08/18 07:43:41;;;;;;;1999.90;999.90;;;17.90;99.90;;;;;;5066202;28;20165;-85
2021/08/18 07:46:07;;;;;;;1999.90;999.90;;;17.90;99.90;;;;;;5067631;28;20417;-86
2021/08/18 07:48:33;;;;;;;1999.90;999.90;;;18.00;99.90;;;;;;5067198;28;20185;-85
2021/08/18 07:50:59;;;;;;;1999.90;999.90;;;18.10;99.90;;;;;;5065061;28;20202;-85
2021/08/18 07:53:25;;;;;;;1999.90;999.90;;;18.20;99.90;;;;;;5065477;28;20188;-85
2021/08/18 07:55:51;;;;;;;1999.90;999.90;;;18.20;99.90;;;;;;5065305;28;20744;-84
2021/08/18 07:58:17;;;;;;;1999.90;999.90;;;18.30;99.90;;;;;;5048130;28;20453;-84
2021/08/18 08:00:43;;;;;;;1999.90;999.90;;;18.20;99.90;;;;;;5049108;28;20172;-85
2021/08/18 08:03:09;;;;;;;1999.90;999.90;;;18.10;99.90;;;;;;5048249;28;20255;-85
2021/08/18 08:05:36;;;;;;;1999.90;999.90;;;18.10;99.90;;;;;;5063951;28;20941;-85
2021/08/18 08:08:01;;;;;;;1999.90;999.90;;;18.20;99.90;;;;;;5044692;28;20969;-85
2021/08/18 08:10:27;;;;;;;1999.90;999.90;;;18.10;99.90;;;;;;5063527;28;20414;-85
2021/08/18 08:12:53;;;;;;;1999.90;999.90;;;18.10;99.90;;;;;;5046944;28;20407;-85
2021/08/18 08:15:19;;;;;;;1999.90;999.90;;;18.20;99.90;;;;;;5064879;28;20249;-85
2021/08/18 08:17:44;;;;;;;1999.90;999.90;;;18.10;99.90;;;;;;5065647;28;20184;-85
2021/08/18 08:20:10;;;;;;;1999.90;999.90;;;18.10;99.90;;;;;;5047029;28;20290;-85
2021/08/18 08:22:37;;;;;;;1999.90;999.90;;;18.20;99.90;;;;;;5047370;28;20194;-85
2021/08/18 08:25:04;;;;;;;1999.90;999.90;;;18.20;99.90;;;;;;5065488;28;20486;-85
2021/08/18 08:27:29;;;;;;;1999.90;999.90;;;18.10;99.90;;;;;;5048365;28;21103;-85
2021/08/18 08:29:55;;;;;;;1999.90;999.90;;;18.20;99.90;;;;;;5065806;28;20470;-84
2021/08/18 08:32:21;;;;;;;1999.90;999.90;;;18.10;99.90;;;;;;5065472;28;20169;-84
2021/08/18 08:34:46;;;;;;;1999.90;999.90;;;18.10;99.90;;;;;;5063691;28;20169;-84
2021/08/18 08:37:12;;;;;;;1999.90;999.90;;;18.20;99.90;;;;;;5062075;28;20623;-84
2021/08/18 08:39:38;;;;;;;1999.90;999.90;;;18.10;99.90;;;;;;5043722;28;20283;-84
2021/08/18 08:42:04;;;;;;;1999.90;999.90;;;18.10;99.90;;;;;;5059485;28;20169;-84
2021/08/18 08:44:32;;;;;;;1999.90;999.90;;;18.10;99.90;;;;;;5059797;28;20636;-84
2021/08/18 08:46:59;;;;;;;1999.90;999.90;;;18.10;99.90;;;;;;5040970;28;20957;-84
2021/08/18 08:49:24;;;;;;;1999.90;999.90;;;18.00;99.90;;;;;;5059027;28;20455;-83
2021/08/18 08:51:52;;;;;;;1999.90;999.90;;;18.00;99.90;;;;;;5059012;28;20422;-84
2021/08/18 08:54:19;;;;;;;1999.90;999.90;;;18.00;99.90;;;;;;5041689;28;20434;-84
2021/08/18 08:56:45;;;;;;;1999.90;999.90;;;18.10;99.90;;;;;;5060584;28;20439;-85
2021/08/18 08:59:11;;;;;;;1999.90;999.90;;;18.20;99.90;;;;;;5060125;28;20918;-85
2021/08/18 09:02:06;;;;;;;1999.90;999.90;;;18.20;99.90;;;;;;5041264;28;20443;-84
2021/08/18 09:04:40;;;;;;;1999.90;999.90;;;18.20;99.90;;;;;;5041965;28;20407;-84
2021/08/18 09:07:16;;;;;;;1999.90;999.90;;;18.20;99.90;;;;;;5058608;28;20476;-84
2021/08/18 09:09:57;;;;;;;1999.90;999.90;;;18.10;99.90;;;;;;5040812;28;20973;-84
2021/08/18 09:12:32;;;;;;;1999.90;999.90;;;18.10;99.90;;;;;;5041349;28;20769;-84
2021/08/18 09:15:20;;;;;;;1999.90;999.90;;;18.10;99.90;;;;;;5039673;28;20417;-84
2021/08/18 09:17:48;;;;;;;1999.90;999.90;;;18.20;99.90;;;;;;5057533;28;20790;-84
2021/08/18 09:20:23;;;;;;;1999.90;999.90;;;18.20;99.90;;;;;;5055699;28;20544;-85
2021/08/18 09:22:53;;;;;;;1999.90;999.90;;;18.20;99.90;;;;;;5055545;28;20383;-85
2021/08/18 09:25:26;;;;;;;1999.90;999.90;;;18.20;99.90;;;;;;5036727;28;20415;-85
2021/08/18 09:28:01;;;;;;;1999.90;999.90;;;18.20;99.90;;;;;;5054632;28;20476;-85
2021/08/18 09:30:45;;;;;;;1999.90;999.90;;;18.10;99.90;;;;;;5036693;28;20422;-85
2021/08/18 09:33:17;;;;;;;1999.90;999.90;;;18.10;99.90;;;;;;5054652;28;20808;-85
2021/08/18 09:35:44;;;;;;;1999.90;999.90;;;18.20;99.90;;;;;;5037168;28;20469;-85
2021/08/18 09:38:15;;;;;;;1999.90;999.90;;;18.30;99.90;;;;;;5036459;28;20431;-85
2021/08/18 09:40:50;;;;;;;1999.90;999.90;;;18.40;99.90;;;;;;5054353;28;20756;-85
2021/08/18 09:43:21;;;;;;;1999.90;999.90;;;18.50;99.90;;;;;;5054853;28;20398;-85
2021/08/18 09:46:01;;;;;;;1999.90;999.90;;;18.60;99.90;;;;;;5054535;28;20388;-85
2021/08/18 09:48:34;;;;;;;1999.90;999.90;;;18.70;99.90;;;;;;5036188;28;20458;-85
2021/08/18 09:51:08;;;;;;;1999.90;999.90;;;18.90;99.90;;;;;;5054843;28;20390;-85
2021/08/18 09:53:39;;;;;;;1999.90;999.90;;;19.00;99.90;;;;;;5037118;28;20498;-85
2021/08/18 09:56:06;;;;;;;1999.90;999.90;;;19.20;99.90;;;;;;5056593;28;20392;-85
2021/08/18 09:58:36;;;;;;;1999.90;999.90;;;19.20;99.90;;;;;;5057100;28;20462;-85
2021/08/18 10:01:10;;;;;;;1999.90;999.90;;;19.30;99.90;;;;;;5058555;28;20407;-85
2021/08/18 10:03:50;;;;;;;1999.90;999.90;;;19.40;99.90;;;;;;5040295;28;20493;-85
2021/08/18 10:06:17;;;;;;;1999.90;999.90;;;19.40;99.90;;;;;;5039064;28;20411;-84
2021/08/18 10:08:44;;;;;;;1999.90;999.90;;;19.40;99.90;;;;;;5037302;28;20454;-84
2021/08/18 10:11:12;;;;;;;1999.90;999.90;;;19.30;99.90;;;;;;5054726;28;20491;-85
2021/08/18 10:13:38;;;;;;;1999.90;999.90;;;19.40;99.90;;;;;;5037231;28;20407;-85
2021/08/18 10:16:09;;;;;;;1999.90;999.90;;;19.40;99.90;;;;;;5056188;28;20558;-84
2021/08/18 10:18:43;;;;;;;1999.90;999.90;;;19.40;99.90;;;;;;5039166;28;20422;-84
2021/08/18 10:21:32;;;;;;;1999.90;999.90;;;19.30;99.90;;;;;;5039540;28;20430;-85
2021/08/18 10:23:59;;;;;;;1999.90;999.90;;;19.50;99.90;;;;;;5040342;28;20767;-86
2021/08/18 10:26:34;;;;;;;1999.90;999.90;;;19.40;99.90;;;;;;5059488;28;20414;-84
2021/08/18 10:29:06;;;;;;;1999.90;999.90;;;19.30;99.90;;;;;;5042490;28;20482;-85
2021/08/18 10:31:41;;;;;;;1999.90;999.90;;;19.30;99.90;;;;;;5060137;28;20453;-85
2021/08/18 10:34:29;;;;;;;1999.90;999.90;;;19.20;99.90;;;;;;5042702;28;20411;-85
2021/08/18 10:36:58;;;;;;;1999.90;999.90;;;19.00;99.90;;;;;;5059655;28;20469;-85
2021/08/18 10:39:51;;;;;;;1999.90;999.90;;;19.10;99.90;;;;;;5063431;28;20398;-84
2021/08/18 10:42:38;;;;;;;1999.90;999.90;;;19.00;99.90;;;;;;5060416;28;20387;-85
2021/08/18 10:45:26;;;;;;;1999.90;999.90;;;19.10;99.90;;;;;;5029128;28;20469;-85
2021/08/18 10:47:52;;;;;;;1999.90;999.90;;;19.20;99.90;;;;;;5037510;28;20455;-86
2021/08/18 10:50:24;;;;;;;1999.90;999.90;;;19.10;99.90;;;;;;5038194;28;20465;-85
2021/08/18 10:52:54;;;;;;;1999.90;999.90;;;19.00;99.90;;;;;;5038333;28;20188;-86
2021/08/18 10:55:25;;;;;;;1999.90;999.90;;;19.00;99.90;;;;;;5039278;28;20411;-85
2021/08/18 10:57:59;;;;;;;1999.90;999.90;;;18.90;99.90;;;;;;5055778;28;20430;-85
2021/08/18 11:00:42;;;;;;;1999.90;999.90;;;18.90;99.90;;;;;;5037803;28;20447;-85
2021/08/18 11:03:12;;;;;;;1999.90;999.90;;;19.00;99.90;;;;;;5056480;28;20391;-86
2021/08/18 11:05:38;;;;;;;1999.90;999.90;;;18.90;99.90;;;;;;5040115;28;20411;-85
2021/08/18 11:08:18;;;;;;;1999.90;999.90;;;18.90;99.90;;;;;;5039397;28;20562;-85
2021/08/18 11:10:50;;;;;;;1999.90;999.90;;;18.80;99.90;;;;;;5055995;28;20137;-85
2021/08/18 11:13:17;;;;;;;1999.90;999.90;;;18.60;99.90;;;;;;5056864;28;20383;-85
2021/08/18 11:15:43;;;;;;;1999.90;999.90;;;18.60;99.90;;;;;;5037807;28;20768;-86
2021/08/18 11:18:10;;;;;;;1999.90;999.90;;;18.50;99.90;;;;;;5055717;28;20454;-86
2021/08/18 11:20:37;;;;;;;1999.90;999.90;;;18.30;99.90;;;;;;5059783;28;20165;-84
2021/08/18 11:23:12;;;;;;;1999.90;999.90;;;18.30;99.90;;;;;;5062646;28;20430;-84
2021/08/18 11:25:44;;;;;;;1999.90;999.90;;;18.30;99.90;;;;;;5064099;28;20410;-84
2021/08/18 11:28:21;;;;;;;1999.90;999.90;;;18.50;99.90;;;;;;5062886;28;20439;-84
2021/08/18 11:31:02;;;;;;;1999.90;999.90;;;18.70;99.90;;;;;;5046878;28;20419;-85
2021/08/18 11:33:31;;;;;;;1999.90;999.90;;;18.90;99.90;;;;;;5063825;28;20398;-85
2021/08/18 11:36:00;;;;;;;1999.90;999.90;;;19.10;99.90;;;;;;5047058;28;20425;-85
2021/08/18 11:38:26;;;;;;;1999.90;999.90;;;19.50;99.90;;;;;;5046042;28;20476;-85
2021/08/18 11:40:55;;;;;;;1999.90;999.90;;;19.80;99.90;;;;;;5063553;28;20395;-85
2021/08/18 11:43:57;;;;;;;1999.90;999.90;;;19.90;99.90;;;;;;5061219;28;20510;-85
2021/08/18 11:46:25;;;;;;;1999.90;999.90;;;19.90;99.90;;;;;;4965371;28;20523;-84
2021/08/18 11:49:08;;;;;;;1999.90;999.90;;;19.80;99.90;;;;;;5028431;28;20518;-85
2021/08/18 11:51:37;;;;;;;1999.90;999.90;;;19.80;99.90;;;;;;5045655;28;20416;-85
2021/08/18 11:54:05;;;;;;;1999.90;999.90;;;19.70;99.90;;;;;;5133970;22;20478;-78
2021/08/18 11:56:31;;;;;;;1999.90;999.90;;;19.80;99.90;;;;;;5056187;28;20411;-78
2021/08/18 11:58:58;;;;;;;1999.90;999.90;;;19.90;99.90;;;;;;5055671;28;20432;-77
2021/08/18 12:01:27;;;;;;;1999.90;999.90;;;19.90;99.90;;;;;;5055689;28;20399;-78
2021/08/18 12:03:53;;;;;;;1999.90;999.90;;;20.00;99.90;;;;;;5056327;28;20803;-78